Time;durP1;ratioP1;P1;durP2;ratioP2;P2;SDS_P1;SDS_P2;PMS_P1;PMS_P2;Temp;Humidity;BMP_temperature;BMP_pressure;BME280_temperature;BME280_humidity;BME280_pressure;Samples;Min_cycle;Max_cycle;Signal;HPM_P1;HPM_P2
2023/01/20 00:01:11;;;;;;;;;;;22.20;99.90;;;;;;5024659;28;20008;-70
2023/01/20 00:03:38;;;;;;;;;;;22.40;99.90;;;;;;5027309;28;19912;-72
2023/01/20 00:06:05;;;;;;;;;;;22.60;99.90;;;;;;5028142;28;19912;-72
2023/01/20 00:08:32;;;;;;;;;;;22.90;99.90;;;;;;5038553;28;20328;-71
2023/01/20 00:11:02;;;;;;;;;;;23.00;99.90;;;;;;5032652;28;19913;-71
2023/01/20 00:13:29;;;;;;;;;;;22.90;99.90;;;;;;5028897;28;19928;-71
2023/01/20 00:15:56;;;;;;;;;;;22.70;99.90;;;;;;5028235;28;20126;-70
2023/01/20 00:18:23;;;;;;;;;;;22.60;99.90;;;;;;5030184;28;20290;-71
2023/01/20 00:20:49;;;;;;;;;;;22.40;99.90;;;;;;5028013;28;19936;-70
2023/01/20 00:23:16;;;;;;;;;;;22.30;99.90;;;;;;5027676;28;19932;-71
2023/01/20 00:25:43;;;;;;;;;;;22.20;99.90;;;;;;5028145;28;20381;-71
2023/01/20 00:28:09;;;;;;;;;;;22.00;99.90;;;;;;5029170;28;19909;-71
2023/01/20 00:30:36;;;;;;;;;;;21.80;99.90;;;;;;5027698;28;19955;-72
2023/01/20 00:33:08;;;;;;;;;;;21.70;99.90;;;;;;5030332;28;19924;-70
2023/01/20 00:35:37;;;;;;;;;;;21.70;99.90;;;;;;5030700;28;19909;-72
2023/01/20 00:38:04;;;;;;;;;;;21.70;99.90;;;;;;5034310;28;20402;-70
2023/01/20 00:40:30;;;;;;;;;;;21.70;99.90;;;;;;5029212;28;19946;-71
2023/01/20 00:42:57;;;;;;;;;;;21.70;99.90;;;;;;5031364;28;19927;-71
2023/01/20 00:45:24;;;;;;;;;;;21.70;99.90;;;;;;5027090;28;19971;-71
2023/01/20 00:47:51;;;;;;;;;;;21.70;99.90;;;;;;5027601;28;20425;-71
2023/01/20 00:50:17;;;;;;;;;;;21.70;99.90;;;;;;5026375;28;19925;-71
2023/01/20 00:52:44;;;;;;;;;;;21.80;99.90;;;;;;5032215;28;19928;-69
2023/01/20 00:55:11;;;;;;;;;;;21.90;99.90;;;;;;5031872;28;19924;-69
2023/01/20 00:57:37;;;;;;;;;;;21.80;99.90;;;;;;5031135;28;20103;-71
2023/01/20 01:00:04;;;;;;;;;;;21.80;99.90;;;;;;5029235;28;19972;-70
2023/01/20 01:02:31;;;;;;;;;;;21.90;99.90;;;;;;5029128;28;19966;-70
2023/01/20 01:04:57;;;;;;;;;;;21.90;99.90;;;;;;5028210;28;19916;-70
2023/01/20 01:07:24;;;;;;;;;;;21.80;99.90;;;;;;5028533;28;19917;-71
2023/01/20 01:09:51;;;;;;;;;;;21.80;99.90;;;;;;5028290;28;19924;-71
2023/01/20 01:12:18;;;;;;;;;;;21.80;99.90;;;;;;5027849;28;20383;-71
2023/01/20 01:14:45;;;;;;;;;;;21.70;99.90;;;;;;5038883;28;19920;-71
2023/01/20 01:17:11;;;;;;;;;;;21.80;99.90;;;;;;5027470;28;19917;-70
2023/01/20 01:19:38;;;;;;;;;;;21.80;99.90;;;;;;5027524;28;19960;-70
2023/01/20 01:22:05;;;;;;;;;;;21.80;99.90;;;;;;5027456;28;19991;-70
2023/01/20 01:24:31;;;;;;;;;;;21.80;99.90;;;;;;5025939;28;19923;-70
2023/01/20 01:26:58;;;;;;;;;;;21.80;99.90;;;;;;5027639;28;20656;-71
2023/01/20 01:29:25;;;;;;;;;;;21.80;99.90;;;;;;5027951;28;19924;-71
2023/01/20 01:31:51;;;;;;;;;;;21.90;99.90;;;;;;5028475;28;19921;-71
2023/01/20 01:34:18;;;;;;;;;;;22.00;99.90;;;;;;5028451;28;20023;-70
2023/01/20 01:36:45;;;;;;;;;;;22.10;99.90;;;;;;5027329;28;20512;-70
2023/01/20 01:39:11;;;;;;;;;;;22.20;99.90;;;;;;5027346;28;19928;-71
2023/01/20 01:41:38;;;;;;;;;;;22.40;99.90;;;;;;5029153;28;19921;-70
2023/01/20 01:44:11;;;;;;;;;;;22.40;99.90;;;;;;5031617;28;20389;-70
2023/01/20 01:46:41;;;;;;;;;;;22.50;99.90;;;;;;5031041;28;19916;-71
2023/01/20 01:49:10;;;;;;;;;;;22.60;99.90;;;;;;5026130;28;19924;-71
2023/01/20 01:51:52;;;;;;;;;;;22.70;99.70;;;;;;5027307;28;20003;-69
2023/01/20 01:54:20;;;;;;;;;;;22.80;99.40;;;;;;5030114;28;19916;-70
2023/01/20 01:56:49;;;;;;;;;;;23.10;99.30;;;;;;5027951;28;20503;-71
2023/01/20 01:59:16;;;;;;;;;;;23.30;99.00;;;;;;5026958;28;19913;-70
2023/01/20 02:01:46;;;;;;;;;;;23.50;98.60;;;;;;5030562;28;19958;-70
2023/01/20 02:04:15;;;;;;;;;;;23.70;98.40;;;;;;5026878;28;19908;-70
2023/01/20 02:06:44;;;;;;;;;;;23.80;98.00;;;;;;5029750;28;20027;-71
2023/01/20 02:09:11;;;;;;;;;;;23.80;97.50;;;;;;5039316;28;19916;-69
2023/01/20 02:11:47;;;;;;;;;;;23.60;97.00;;;;;;5027504;28;19963;-72
2023/01/20 02:14:15;;;;;;;;;;;23.30;97.60;;;;;;5025278;28;19917;-70
2023/01/20 02:16:50;;;;;;;;;;;23.10;97.90;;;;;;5026293;28;20274;-71
2023/01/20 02:19:35;;;;;;;;;;;22.90;97.70;;;;;;5026514;28;20011;-71
2023/01/20 02:22:13;;;;;;;;;;;22.70;98.60;;;;;;5027201;28;19916;-69
2023/01/20 02:24:46;;;;;;;;;;;22.60;98.60;;;;;;5025755;28;19916;-70
2023/01/20 02:27:12;;;;;;;;;;;22.50;98.50;;;;;;5025710;28;19912;-69
2023/01/20 02:29:51;;;;;;;;;;;22.40;98.40;;;;;;5025181;28;19998;-69
2023/01/20 02:32:22;;;;;;;;;;;22.30;98.70;;;;;;5031107;28;19916;-72
2023/01/20 02:34:49;;;;;;;;;;;22.20;98.70;;;;;;5040384;28;19923;-70
2023/01/20 02:37:23;;;;;;;;;;;22.10;98.60;;;;;;5027215;28;19968;-70
2023/01/20 02:39:55;;;;;;;;;;;22.10;98.70;;;;;;5026094;28;19916;-69
2023/01/20 02:42:24;;;;;;;;;;;22.00;98.90;;;;;;5026376;28;20290;-70
2023/01/20 02:44:51;;;;;;;;;;;22.00;98.70;;;;;;5031000;28;19916;-70
2023/01/20 02:47:17;;;;;;;;;;;22.00;99.40;;;;;;5028122;28;19991;-70
2023/01/20 02:50:13;;;;;;;;;;;21.90;99.90;;;;;;5027432;28;19928;-70
2023/01/20 02:52:43;;;;;;;;;;;21.80;99.90;;;;;;5015763;28;20397;-70
2023/01/20 02:55:11;;;;;;;;;;;21.80;99.90;;;;;;5026431;28;19979;-71
2023/01/20 02:57:41;;;;;;;;;;;21.90;99.90;;;;;;5027769;28;19917;-73
2023/01/20 03:00:28;;;;;;;;;;;21.90;99.90;;;;;;5026318;28;20023;-70
2023/01/20 03:02:56;;;;;;;;;;;21.90;99.90;;;;;;5029451;28;19912;-70
2023/01/20 03:05:28;;;;;;;;;;;21.90;99.90;;;;;;5026860;28;19998;-72
2023/01/20 03:07:56;;;;;;;;;;;21.90;99.90;;;;;;5037675;28;19912;-71
2023/01/20 03:10:24;;;;;;;;;;;21.90;99.90;;;;;;5027885;28;19920;-69
2023/01/20 03:12:56;;;;;;;;;;;21.80;99.90;;;;;;5028802;28;20189;-71
2023/01/20 03:15:46;;;;;;;;;;;21.80;99.90;;;;;;5027420;28;19913;-70
2023/01/20 03:18:12;;;;;;;;;;;21.70;99.90;;;;;;5028987;28;19916;-70
2023/01/20 03:20:39;;;;;;;;;;;21.70;99.90;;;;;;5025525;28;19912;-70
2023/01/20 03:23:06;;;;;;;;;;;21.70;99.90;;;;;;5026470;28;20015;-70
2023/01/20 03:25:33;;;;;;;;;;;21.80;99.90;;;;;;5025103;28;19921;-70
2023/01/20 03:28:06;;;;;;;;;;;21.80;99.90;;;;;;5025719;28;20043;-70
2023/01/20 03:30:33;;;;;;;;;;;21.90;99.90;;;;;;5026657;28;19924;-69
2023/01/20 03:33:00;;;;;;;;;;;22.00;99.90;;;;;;5028445;28;19924;-69
2023/01/20 03:35:27;;;;;;;;;;;22.10;99.90;;;;;;5027756;28;19913;-69
2023/01/20 03:37:54;;;;;;;;;;;22.10;99.90;;;;;;5027556;28;19928;-69
2023/01/20 03:40:22;;;;;;;;;;;22.00;99.90;;;;;;5025122;28;19974;-68
2023/01/20 03:42:51;;;;;;;;;;;21.90;99.90;;;;;;5027598;28;19916;-69
2023/01/20 03:45:40;;;;;;;;;;;21.80;99.90;;;;;;5026742;28;19924;-70
2023/01/20 03:48:16;;;;;;;;;;;21.80;99.90;;;;;;5028494;28;19956;-69
2023/01/20 03:50:49;;;;;;;;;;;21.90;99.90;;;;;;5024393;28;19956;-69
2023/01/20 03:53:22;;;;;;;;;;;21.90;99.90;;;;;;5026183;28;20931;-70
2023/01/20 03:55:55;;;;;;;;;;;22.00;99.90;;;;;;5026345;28;20387;-69
2023/01/20 03:58:25;;;;;;;;;;;22.10;99.90;;;;;;5025450;28;19999;-70
2023/01/20 04:00:53;;;;;;;;;;;22.20;99.90;;;;;;5024972;28;19917;-69
2023/01/20 04:03:26;;;;;;;;;;;22.30;99.90;;;;;;5025807;28;19947;-69
2023/01/20 04:05:54;;;;;;;;;;;22.50;99.90;;;;;;5028967;28;20429;-70
2023/01/20 04:08:23;;;;;;;;;;;22.60;99.90;;;;;;5028797;28;19998;-70
2023/01/20 04:10:52;;;;;;;;;;;22.70;99.90;;;;;;5029369;28;20048;-71
2023/01/20 04:13:19;;;;;;;;;;;22.70;99.90;;;;;;5028787;28;19974;-71
2023/01/20 04:15:45;;;;;;;;;;;22.80;99.70;;;;;;5027439;28;19919;-70
2023/01/20 04:18:14;;;;;;;;;;;22.80;99.70;;;;;;5029546;28;19978;-70
2023/01/20 04:20:41;;;;;;;;;;;22.80;99.40;;;;;;5028264;28;19917;-70
2023/01/20 04:23:11;;;;;;;;;;;22.80;98.40;;;;;;5029665;28;20394;-69
2023/01/20 04:25:38;;;;;;;;;;;22.70;98.30;;;;;;5031539;28;19921;-71
2023/01/20 04:28:04;;;;;;;;;;;22.60;98.30;;;;;;5025693;28;19916;-69
2023/01/20 04:30:31;;;;;;;;;;;22.50;98.40;;;;;;5026246;28;22620;-70
2023/01/20 04:32:58;;;;;;;;;;;22.50;98.40;;;;;;5029586;28;21096;-69
2023/01/20 04:35:25;;;;;;;;;;;22.40;98.20;;;;;;5027928;28;19913;-70
2023/01/20 04:37:52;;;;;;;;;;;22.40;97.60;;;;;;5026979;28;19923;-71
2023/01/20 04:40:18;;;;;;;;;;;22.40;97.90;;;;;;5025415;28;19920;-70
2023/01/20 04:42:45;;;;;;;;;;;22.40;97.50;;;;;;5033652;28;20458;-70
2023/01/20 04:45:15;;;;;;;;;;;22.40;97.30;;;;;;5054927;28;19952;-72
2023/01/20 04:47:42;;;;;;;;;;;22.40;97.00;;;;;;5058061;28;19916;-71
2023/01/20 04:50:09;;;;;;;;;;;22.40;96.90;;;;;;5062148;28;19916;-71
2023/01/20 04:52:36;;;;;;;;;;;22.40;96.90;;;;;;5061584;28;19916;-71
2023/01/20 04:55:03;;;;;;;;;;;22.50;96.70;;;;;;5054396;28;20719;-71
2023/01/20 04:57:30;;;;;;;;;;;22.70;96.50;;;;;;5053066;28;19909;-71
2023/01/20 04:59:56;;;;;;;;;;;22.80;97.00;;;;;;5029642;28;19917;-73
2023/01/20 05:02:23;;;;;;;;;;;22.90;96.50;;;;;;5024714;28;19920;-72
2023/01/20 05:04:50;;;;;;;;;;;23.00;96.30;;;;;;5023318;28;19916;-71
2023/01/20 05:07:19;;;;;;;;;;;22.90;96.30;;;;;;5023924;28;19915;-73
2023/01/20 05:09:46;;;;;;;;;;;22.80;97.70;;;;;;5031183;28;19916;-70
2023/01/20 05:12:13;;;;;;;;;;;22.50;98.60;;;;;;5026499;28;19923;-70
2023/01/20 05:14:39;;;;;;;;;;;22.30;99.90;;;;;;5022984;28;20055;-71
2023/01/20 05:17:06;;;;;;;;;;;22.00;99.90;;;;;;5025758;28;19912;-69
2023/01/20 05:19:33;;;;;;;;;;;21.80;99.90;;;;;;5023902;28;19926;-73
2023/01/20 05:21:59;;;;;;;;;;;21.60;99.90;;;;;;5027559;28;19912;-70
2023/01/20 05:24:29;;;;;;;;;;;21.50;99.90;;;;;;5024551;28;19935;-72
2023/01/20 05:26:59;;;;;;;;;;;21.40;99.90;;;;;;5026141;28;20626;-70
2023/01/20 05:29:26;;;;;;;;;;;21.30;99.90;;;;;;5025527;28;20319;-70
2023/01/20 05:31:52;;;;;;;;;;;21.30;99.90;;;;;;5027616;28;19916;-71
2023/01/20 05:34:19;;;;;;;;;;;21.30;99.90;;;;;;5023472;28;20004;-70
2023/01/20 05:36:46;;;;;;;;;;;21.20;99.90;;;;;;5026331;28;19920;-70
2023/01/20 05:39:12;;;;;;;;;;;21.20;99.90;;;;;;5027306;28;20611;-70
2023/01/20 05:41:39;;;;;;;;;;;21.20;99.90;;;;;;5028030;28;19913;-72
2023/01/20 05:44:06;;;;;;;;;;;21.20;99.90;;;;;;5027458;28;19917;-70
2023/01/20 05:46:33;;;;;;;;;;;21.10;99.90;;;;;;5027426;28;20418;-69
2023/01/20 05:49:01;;;;;;;;;;;21.20;99.90;;;;;;5028673;28;19920;-71
2023/01/20 05:51:28;;;;;;;;;;;21.10;99.90;;;;;;5028611;28;19959;-71
2023/01/20 05:53:54;;;;;;;;;;;21.10;99.90;;;;;;5027416;28;20009;-72
2023/01/20 05:56:21;;;;;;;;;;;21.10;99.90;;;;;;5028391;28;20327;-72
2023/01/20 05:58:47;;;;;;;;;;;21.10;99.90;;;;;;5027418;28;19999;-71
2023/01/20 06:01:14;;;;;;;;;;;21.00;99.90;;;;;;5031018;28;19948;-71
2023/01/20 06:03:41;;;;;;;;;;;21.00;99.90;;;;;;5026800;28;20503;-71
2023/01/20 06:06:14;;;;;;;;;;;21.00;99.90;;;;;;5029025;28;19916;-71
2023/01/20 06:08:41;;;;;;;;;;;21.00;99.90;;;;;;5029572;28;19925;-72
2023/01/20 06:11:08;;;;;;;;;;;21.00;99.90;;;;;;5038264;28;19928;-69
2023/01/20 06:13:34;;;;;;;;;;;21.00;99.90;;;;;;5028538;28;20364;-70
2023/01/20 06:16:01;;;;;;;;;;;21.00;99.90;;;;;;5026466;28;19916;-72
2023/01/20 06:18:29;;;;;;;;;;;21.00;99.90;;;;;;5027544;28;19940;-70
2023/01/20 06:20:57;;;;;;;;;;;21.00;99.90;;;;;;5027563;28;19930;-73
2023/01/20 06:23:24;;;;;;;;;;;21.00;99.90;;;;;;5028342;28;19943;-70
2023/01/20 06:25:58;;;;;;;;;;;21.00;99.90;;;;;;5027896;28;20157;-71
2023/01/20 06:28:24;;;;;;;;;;;21.00;99.90;;;;;;5028662;28;19939;-69
2023/01/20 06:30:51;;;;;;;;;;;21.00;99.90;;;;;;5025038;28;20003;-72
2023/01/20 06:33:18;;;;;;;;;;;21.10;99.90;;;;;;5027924;28;19924;-72
2023/01/20 06:35:44;;;;;;;;;;;21.10;99.90;;;;;;5027552;28;19947;-70
2023/01/20 06:38:11;;;;;;;;;;;21.20;99.90;;;;;;5028507;28;19924;-70
2023/01/20 06:40:39;;;;;;;;;;;21.30;99.90;;;;;;5028815;28;19916;-70
2023/01/20 06:43:05;;;;;;;;;;;21.30;99.90;;;;;;5028524;28;23402;-70
2023/01/20 06:45:32;;;;;;;;;;;21.40;99.90;;;;;;5025142;28;20955;-70
2023/01/20 06:47:58;;;;;;;;;;;21.50;99.90;;;;;;5026831;28;20322;-70
2023/01/20 06:50:25;;;;;;;;;;;21.50;99.90;;;;;;5025113;28;19921;-70
2023/01/20 06:52:53;;;;;;;;;;;21.60;99.90;;;;;;5026059;28;19917;-70
2023/01/20 06:55:19;;;;;;;;;;;21.80;99.90;;;;;;5027197;28;20011;-70
2023/01/20 06:57:46;;;;;;;;;;;22.20;99.90;;;;;;5025791;28;20629;-69
2023/01/20 07:00:13;;;;;;;;;;;22.40;99.90;;;;;;5027063;28;19923;-72
2023/01/20 07:02:40;;;;;;;;;;;22.40;99.90;;;;;;5028949;28;19913;-70
2023/01/20 07:05:08;;;;;;;;;;;22.30;99.90;;;;;;5019409;28;19944;-70
2023/01/20 07:07:34;;;;;;;;;;;22.00;99.90;;;;;;5034026;28;19962;-71
2023/01/20 07:10:05;;;;;;;;;;;21.80;99.90;;;;;;5026295;28;20269;-73
2023/01/20 07:12:32;;;;;;;;;;;21.60;99.90;;;;;;5029078;28;19928;-71
2023/01/20 07:14:58;;;;;;;;;;;21.50;99.90;;;;;;5025437;28;20265;-72
2023/01/20 07:17:25;;;;;;;;;;;21.40;99.90;;;;;;5029531;28;19917;-72
2023/01/20 07:19:52;;;;;;;;;;;21.30;99.90;;;;;;5026894;28;19917;-72
2023/01/20 07:22:19;;;;;;;;;;;21.30;99.90;;;;;;5026548;28;20454;-71
2023/01/20 07:24:45;;;;;;;;;;;21.30;99.90;;;;;;5026082;28;19917;-72
2023/01/20 07:27:13;;;;;;;;;;;21.30;99.90;;;;;;5027284;28;19913;-72
2023/01/20 07:29:40;;;;;;;;;;;21.30;99.90;;;;;;5027127;28;19920;-70
2023/01/20 07:32:07;;;;;;;;;;;21.20;99.90;;;;;;5026383;28;19967;-70
2023/01/20 07:34:34;;;;;;;;;;;21.20;99.90;;;;;;5026734;28;20429;-70
2023/01/20 07:37:01;;;;;;;;;;;21.20;99.90;;;;;;5023309;28;19924;-71
2023/01/20 07:39:28;;;;;;;;;;;21.20;99.90;;;;;;5031196;28;19921;-72
2023/01/20 07:41:54;;;;;;;;;;;21.10;99.90;;;;;;5030644;28;19917;-71
2023/01/20 07:44:21;;;;;;;;;;;21.10;99.90;;;;;;5030117;28;19964;-71
2023/01/20 07:46:50;;;;;;;;;;;21.10;99.90;;;;;;5028434;28;19917;-71
2023/01/20 07:49:18;;;;;;;;;;;21.10;99.90;;;;;;5030245;28;19924;-71
2023/01/20 07:51:44;;;;;;;;;;;21.10;99.90;;;;;;5030390;28;19924;-71
2023/01/20 07:54:11;;;;;;;;;;;21.00;99.90;;;;;;5031427;28;19917;-70
2023/01/20 07:56:38;;;;;;;;;;;21.00;99.90;;;;;;5029349;28;19916;-71
2023/01/20 07:59:04;;;;;;;;;;;20.90;99.90;;;;;;5030031;28;19955;-71
2023/01/20 08:01:32;;;;;;;;;;;20.70;99.90;;;;;;5031351;28;20540;-70
2023/01/20 08:04:02;;;;;;;;;;;20.70;99.90;;;;;;5028980;28;20291;-70
2023/01/20 08:06:29;;;;;;;;;;;20.60;99.90;;;;;;5030407;28;20361;-70
2023/01/20 08:08:58;;;;;;;;;;;20.60;99.90;;;;;;5043229;28;19927;-70
2023/01/20 08:11:25;;;;;;;;;;;20.50;99.90;;;;;;5031866;28;20245;-69
2023/01/20 08:13:52;;;;;;;;;;;20.50;99.90;;;;;;5030011;28;20877;-71
2023/01/20 08:16:18;;;;;;;;;;;20.40;99.90;;;;;;5031671;28;20314;-70
2023/01/20 08:18:46;;;;;;;;;;;20.40;99.90;;;;;;5030498;28;19913;-71
2023/01/20 08:21:21;;;;;;;;;;;20.30;99.90;;;;;;5030421;28;19999;-70
2023/01/20 08:23:48;;;;;;;;;;;20.20;99.90;;;;;;5026895;28;20492;-70
2023/01/20 08:26:15;;;;;;;;;;;20.20;99.90;;;;;;5029921;28;19912;-70
2023/01/20 08:28:41;;;;;;;;;;;20.20;99.90;;;;;;5030585;28;19960;-70
2023/01/20 08:31:10;;;;;;;;;;;20.10;99.90;;;;;;5029055;28;20008;-71
2023/01/20 08:33:37;;;;;;;;;;;20.10;99.90;;;;;;5030137;28;20371;-70
2023/01/20 08:36:07;;;;;;;;;;;20.00;99.90;;;;;;5028653;28;19916;-71
2023/01/20 08:38:34;;;;;;;;;;;20.00;99.90;;;;;;5028159;28;19924;-71
2023/01/20 08:41:02;;;;;;;;;;;19.90;99.90;;;;;;5029383;28;19917;-70
2023/01/20 08:43:28;;;;;;;;;;;19.90;99.90;;;;;;5030312;28;19952;-71
2023/01/20 08:46:02;;;;;;;;;;;19.90;99.90;;;;;;5031649;28;20326;-71
2023/01/20 08:48:29;;;;;;;;;;;19.90;99.90;;;;;;5029013;28;19913;-71
2023/01/20 08:50:55;;;;;;;;;;;19.80;99.90;;;;;;5043979;28;19916;-70
2023/01/20 08:53:22;;;;;;;;;;;19.80;99.90;;;;;;5028362;28;20031;-71
2023/01/20 08:55:58;;;;;;;;;;;19.80;99.90;;;;;;5031240;28;19916;-70
2023/01/20 08:58:26;;;;;;;;;;;19.80;99.90;;;;;;5028331;28;19960;-70
2023/01/20 09:00:53;;;;;;;;;;;19.80;99.90;;;;;;5031090;28;19948;-70
2023/01/20 09:03:20;;;;;;;;;;;19.80;99.90;;;;;;5027675;28;19917;-70
2023/01/20 09:05:47;;;;;;;;;;;19.80;99.90;;;;;;5030103;28;19920;-71
2023/01/20 09:08:14;;;;;;;;;;;19.70;99.90;;;;;;5028603;28;19916;-71
2023/01/20 09:10:40;;;;;;;;;;;19.70;99.90;;;;;;5040966;28;19924;-70
2023/01/20 09:13:08;;;;;;;;;;;19.70;99.90;;;;;;5029052;28;19998;-70
2023/01/20 09:15:35;;;;;;;;;;;19.70;99.90;;;;;;5030126;28;19916;-71
2023/01/20 09:18:02;;;;;;;;;;;19.70;99.90;;;;;;5030337;28;20287;-70
2023/01/20 09:20:29;;;;;;;;;;;19.70;99.90;;;;;;5030340;28;20839;-71
2023/01/20 09:23:00;;;;;;;;;;;19.70;99.90;;;;;;5029322;28;19916;-70
2023/01/20 09:25:27;;;;;;;;;;;19.70;99.90;;;;;;5032127;28;19913;-70
2023/01/20 09:27:53;;;;;;;;;;;19.70;99.90;;;;;;5029491;28;19917;-70
2023/01/20 09:30:20;;;;;;;;;;;19.70;99.90;;;;;;5030405;28;20660;-71
2023/01/20 09:32:48;;;;;;;;;;;19.60;99.90;;;;;;5032944;28;20418;-70
2023/01/20 09:35:15;;;;;;;;;;;19.60;99.90;;;;;;5028283;28;19923;-72
2023/01/20 09:46:18;;;;;;;;;;;19.40;99.90;;;;;;5028474;28;20408;-71
2023/01/20 09:54:28;;;;;;;;;;;19.40;99.90;;;;;;5026938;28;19919;-72
2023/01/20 09:56:58;;;;;;;;;;;19.40;99.90;;;;;;5028896;28;19917;-72
2023/01/20 09:59:35;;;;;;;;;;;19.40;99.90;;;;;;5028183;28;19913;-72
2023/01/20 10:02:06;;;;;;;;;;;19.30;99.90;;;;;;5028185;28;20925;-71
2023/01/20 10:04:38;;;;;;;;;;;19.30;99.90;;;;;;5026812;28;19913;-74
2023/01/20 10:07:07;;;;;;;;;;;19.30;99.90;;;;;;5031106;28;19916;-73
2023/01/20 10:09:34;;;;;;;;;;;19.30;99.90;;;;;;5027497;28;19993;-73
2023/01/20 10:12:05;;;;;;;;;;;19.30;99.90;;;;;;5035923;28;19966;-72
2023/01/20 10:14:35;;;;;;;;;;;19.30;99.90;;;;;;5026322;28;19916;-72
2023/01/20 10:17:30;;;;;;;;;;;19.30;99.90;;;;;;5029556;28;19916;-73
2023/01/20 10:20:10;;;;;;;;;;;19.30;99.90;;;;;;5012723;28;20379;-72
2023/01/20 10:22:42;;;;;;;;;;;19.30;99.90;;;;;;5027709;28;19916;-72
2023/01/20 10:25:14;;;;;;;;;;;19.30;99.90;;;;;;5026523;28;19917;-71
2023/01/20 10:27:44;;;;;;;;;;;19.30;99.90;;;;;;5028091;28;19924;-72
2023/01/20 10:30:14;;;;;;;;;;;19.30;99.90;;;;;;5028332;28;20462;-73
2023/01/20 10:32:44;;;;;;;;;;;19.20;99.90;;;;;;5030246;28;19925;-71
2023/01/20 10:35:19;;;;;;;;;;;19.20;99.90;;;;;;5026472;28;19917;-70
2023/01/20 10:37:45;;;;;;;;;;;19.20;99.90;;;;;;5029737;28;19916;-72
2023/01/20 10:40:12;;;;;;;;;;;19.20;99.90;;;;;;5026050;28;20296;-72
2023/01/20 10:42:39;;;;;;;;;;;19.20;99.90;;;;;;5027095;28;19921;-72
2023/01/20 10:45:13;;;;;;;;;;;19.10;99.90;;;;;;5027929;28;19916;-72
2023/01/20 10:47:59;;;;;;;;;;;19.10;99.90;;;;;;5025911;28;19916;-72
2023/01/20 10:50:41;;;;;;;;;;;19.10;99.90;;;;;;5026184;28;21937;-72
2023/01/20 10:53:23;;;;;;;;;;;19.10;99.90;;;;;;5029300;28;21130;-72
2023/01/20 10:55:58;;;;;;;;;;;19.10;99.90;;;;;;5028358;28;19912;-73
2023/01/20 10:58:30;;;;;;;;;;;19.00;99.90;;;;;;5028240;28;19916;-72
2023/01/20 11:00:58;;;;;;;;;;;19.00;99.90;;;;;;5027321;28;22869;-73
2023/01/20 11:03:25;;;;;;;;;;;19.00;99.90;;;;;;5026829;28;20047;-73
2023/01/20 11:05:51;;;;;;;;;;;19.00;99.90;;;;;;5030267;28;19924;-72
2023/01/20 11:08:20;;;;;;;;;;;19.00;99.90;;;;;;5040950;28;19916;-74
2023/01/20 11:10:48;;;;;;;;;;;19.00;99.90;;;;;;5027738;28;19924;-71
2023/01/20 11:13:16;;;;;;;;;;;19.00;99.90;;;;;;5029226;28;19917;-71
2023/01/20 11:15:45;;;;;;;;;;;19.00;99.90;;;;;;5031677;28;19967;-71
2023/01/20 11:18:15;;;;;;;;;;;19.00;99.90;;;;;;5033408;28;20320;-71
2023/01/20 11:20:59;;;;;;;;;;;18.90;99.90;;;;;;5031579;28;19913;-71
2023/01/20 11:23:36;;;;;;;;;;;18.90;99.90;;;;;;5031177;28;19917;-72
2023/01/20 11:26:10;;;;;;;;;;;18.90;99.90;;;;;;5032096;28;20385;-71
2023/01/20 11:29:00;;;;;;;;;;;18.90;99.90;;;;;;5031358;28;20558;-72
2023/01/20 11:31:35;;;;;;;;;;;18.80;99.90;;;;;;5021670;28;20344;-73
2023/01/20 11:34:13;;;;;;;;;;;18.80;99.90;;;;;;5028453;28;19925;-72
2023/01/20 11:36:39;;;;;;;;;;;18.80;99.90;;;;;;5029931;28;20382;-72
2023/01/20 11:39:23;;;;;;;;;;;18.70;99.90;;;;;;5030992;28;19924;-72
2023/01/20 11:42:08;;;;;;;;;;;18.70;99.90;;;;;;5030009;28;19909;-72
2023/01/20 11:44:44;;;;;;;;;;;18.70;99.90;;;;;;5028001;28;19923;-71
2023/01/20 11:47:28;;;;;;;;;;;18.70;99.90;;;;;;5031499;28;20228;-71
2023/01/20 11:50:17;;;;;;;;;;;18.70;99.90;;;;;;5029194;28;20350;-71
2023/01/20 11:52:46;;;;;;;;;;;18.70;99.90;;;;;;5029008;28;19908;-72
2023/01/20 11:55:14;;;;;;;;;;;18.70;99.90;;;;;;5030961;28;20359;-72
2023/01/20 11:57:49;;;;;;;;;;;18.70;99.90;;;;;;5030691;28;20419;-71
2023/01/20 12:00:16;;;;;;;;;;;18.70;99.90;;;;;;5029684;28;20433;-72
2023/01/20 12:02:44;;;;;;;;;;;18.70;99.90;;;;;;5029552;28;19947;-73
2023/01/20 12:05:24;;;;;;;;;;;18.70;99.90;;;;;;5029134;28;19917;-73
2023/01/20 12:07:51;;;;;;;;;;;18.60;99.90;;;;;;5031721;28;19932;-73
2023/01/20 12:10:23;;;;;;;;;;;18.60;99.90;;;;;;5032785;28;19920;-73
2023/01/20 12:13:21;;;;;;;;;;;18.60;99.90;;;;;;5035966;28;19928;-73
2023/01/20 12:15:51;;;;;;;;;;;18.60;99.90;;;;;;5029932;28;19920;-72
2023/01/20 12:18:33;;;;;;;;;;;18.50;99.90;;;;;;5030893;28;19962;-73
2023/01/20 12:21:08;;;;;;;;;;;18.50;99.90;;;;;;5030058;28;19955;-73
2023/01/20 12:23:52;;;;;;;;;;;18.50;99.90;;;;;;5028702;28;19917;-73
2023/01/20 12:26:20;;;;;;;;;;;18.50;99.90;;;;;;5029005;28;19920;-73
2023/01/20 12:29:22;;;;;;;;;;;18.50;99.90;;;;;;5029527;28;19927;-73
2023/01/20 12:31:49;;;;;;;;;;;18.50;99.90;;;;;;4970028;28;19957;-73
2023/01/20 12:34:17;;;;;;;;;;;18.50;99.90;;;;;;5015896;28;19930;-73
2023/01/20 12:36:53;;;;;;;;;;;18.50;99.90;;;;;;5032177;28;19917;-73
2023/01/20 12:39:26;;;;;;;;;;;18.50;99.90;;;;;;5030912;28;19921;-73
2023/01/20 12:41:58;;;;;;;;;;;18.50;99.90;;;;;;5030167;28;19913;-74
2023/01/20 12:44:46;;;;;;;;;;;18.60;99.90;;;;;;5029663;28;19927;-74
2023/01/20 12:47:21;;;;;;;;;;;18.50;99.90;;;;;;5030879;28;19912;-70
2023/01/20 12:49:56;;;;;;;;;;;18.60;99.90;;;;;;5028224;28;19925;-73
2023/01/20 12:52:30;;;;;;;;;;;18.60;99.90;;;;;;5028402;28;19908;-72
2023/01/20 12:54:57;;;;;;;;;;;18.70;99.90;;;;;;5027265;28;20010;-72
2023/01/20 12:57:29;;;;;;;;;;;18.70;99.90;;;;;;5029580;28;19913;-70
2023/01/20 13:00:08;;;;;;;;;;;18.70;99.90;;;;;;5028737;28;19916;-71
2023/01/20 13:02:36;;;;;;;;;;;18.70;99.90;;;;;;5027729;28;19924;-72
2023/01/20 13:05:33;;;;;;;;;;;18.70;99.90;;;;;;5028073;28;20473;-71
2023/01/20 13:08:02;;;;;;;;;;;18.70;99.90;;;;;;5029194;28;19917;-72
2023/01/20 13:10:49;;;;;;;;;;;18.70;99.90;;;;;;5028367;28;19917;-72
2023/01/20 13:13:23;;;;;;;;;;;18.70;99.90;;;;;;5017388;28;19992;-72
2023/01/20 13:16:04;;;;;;;;;;;18.60;99.90;;;;;;5028766;28;20318;-73
2023/01/20 13:18:41;;;;;;;;;;;18.60;99.90;;;;;;5029147;28;19917;-72
2023/01/20 13:21:11;;;;;;;;;;;18.50;99.90;;;;;;5028995;28;19943;-72
2023/01/20 13:23:38;;;;;;;;;;;18.50;99.90;;;;;;5027995;28;19917;-71
2023/01/20 13:26:05;;;;;;;;;;;18.50;99.90;;;;;;5029367;28;19913;-72
2023/01/20 13:28:32;;;;;;;;;;;18.50;99.90;;;;;;5028209;28;19962;-72
2023/01/20 13:30:59;;;;;;;;;;;18.40;99.90;;;;;;5029340;28;20040;-72
2023/01/20 13:33:29;;;;;;;;;;;18.50;99.90;;;;;;5029864;28;19920;-73
2023/01/20 13:35:58;;;;;;;;;;;18.40;99.90;;;;;;5045863;28;20454;-73
2023/01/20 13:38:29;;;;;;;;;;;18.50;99.90;;;;;;5033724;28;19964;-72
2023/01/20 13:40:58;;;;;;;;;;;18.50;99.90;;;;;;5036698;28;19917;-72
2023/01/20 13:43:31;;;;;;;;;;;18.60;99.90;;;;;;5031289;28;19928;-73
2023/01/20 13:46:06;;;;;;;;;;;18.60;99.90;;;;;;5034929;28;19916;-73
2023/01/20 13:48:34;;;;;;;;;;;18.50;99.90;;;;;;5029497;28;20382;-71
2023/01/20 13:51:19;;;;;;;;;;;18.60;99.90;;;;;;5033275;28;19920;-72
2023/01/20 13:53:46;;;;;;;;;;;18.60;99.90;;;;;;5030848;28;19959;-72
2023/01/20 13:56:29;;;;;;;;;;;18.60;99.90;;;;;;5029555;28;19919;-72
2023/01/20 13:58:59;;;;;;;;;;;18.60;99.90;;;;;;5028174;28;20058;-72
2023/01/20 14:01:26;;;;;;;;;;;18.60;99.90;;;;;;5030286;28;19912;-72
2023/01/20 14:04:03;;;;;;;;;;;18.60;99.90;;;;;;5026922;28;20041;-72
2023/01/20 14:06:32;;;;;;;;;;;18.60;99.90;;;;;;5028592;28;19923;-72
2023/01/20 14:09:03;;;;;;;;;;;18.60;99.90;;;;;;5028405;28;20841;-72
2023/01/20 14:11:30;;;;;;;;;;;18.60;99.90;;;;;;5038987;28;22027;-72
2023/01/20 14:13:58;;;;;;;;;;;18.60;99.90;;;;;;5028975;28;20341;-72
2023/01/20 14:16:26;;;;;;;;;;;18.50;99.90;;;;;;5030731;28;19919;-72
2023/01/20 14:19:12;;;;;;;;;;;18.50;99.90;;;;;;5028240;28;20006;-72
2023/01/20 14:21:40;;;;;;;;;;;18.50;99.90;;;;;;5030844;28;19913;-71
2023/01/20 14:24:25;;;;;;;;;;;18.50;99.90;;;;;;5035546;28;19974;-71
2023/01/20 14:27:04;;;;;;;;;;;18.50;99.90;;;;;;5029511;28;19971;-71
2023/01/20 14:29:31;;;;;;;;;;;18.50;99.90;;;;;;5030579;28;20263;-71
2023/01/20 14:31:58;;;;;;;;;;;18.50;99.90;;;;;;5030990;28;19970;-71
2023/01/20 14:34:32;;;;;;;;;;;18.60;99.90;;;;;;5030913;28;19932;-72
2023/01/20 14:37:18;;;;;;;;;;;18.60;99.90;;;;;;5030286;28;20283;-72
2023/01/20 14:39:47;;;;;;;;;;;18.60;99.90;;;;;;5028915;28;20310;-72
2023/01/20 14:42:18;;;;;;;;;;;18.60;99.90;;;;;;5030527;28;19913;-72
2023/01/20 14:44:48;;;;;;;;;;;18.60;99.90;;;;;;5033475;28;19913;-71
2023/01/20 14:47:15;;;;;;;;;;;18.60;99.90;;;;;;5030367;28;20349;-72